CheckWX is a tool to help pilots better visualize weather data.  It is not intended as a substitute for an official pre-flight weather briefing.

08:14:46 UTC

KCKV METAR
Outlaw Field Airport
Clarksville, Tennessee, USA
Current

23 mins ago

KCKV 220752Z AUTO 35005KT 7SM FEW009 OVC120 06/04 A3019 RMK AO2 RAE04 SLP224 P0000 T00610044
Observed
Feb-22 @ 07:52 UTC
Wind
  • 350° at 5 KTS
Visibility
7 SM
Flight Rules
VFR
Cloud Levels
  • Few at 900' AGL
  • Overcast at 12,000' AGL
Temperature
C / 43°F
Dewpoint
C / 39°F
Humidity
87%
Altimeter
30.19" Hg
Pressure
1022.4 hPa
Current Rain
0.01"
Previous

1 hour ago

KCKV 220652Z AUTO 12010KT 7SM -RA OVC095 06/04 A3016 RMK AO2 SLP213 P0002 T00610039
Observed
Feb-22 @ 06:52 UTC
Wind
  • 120° at 10 KTS
Visibility
7 SM
Flight Rules
VFR
Conditions
Light Rain
Cloud Levels
  • Overcast at 9,500' AGL
Temperature
C / 43°F
Dewpoint
C / 39°F
Humidity
87%
Altimeter
30.16" Hg
Pressure
1021.3 hPa
Current Rain
0.02"
Previous

2 hours ago

KCKV 220552Z AUTO 07003KT 7SM -RA OVC095 06/04 A3020 RMK AO2 SLP228 P0001 60006 T00610039 10083 20056 401060028 56020
Observed
Feb-22 @ 05:52 UTC
Wind
  • 070° at 3 KTS
Visibility
7 SM
Flight Rules
VFR
Conditions
Light Rain
Cloud Levels
  • Overcast at 9,500' AGL
Temperature
C / 43°F
Dewpoint
C / 39°F
Humidity
87%
Altimeter
30.2" Hg
Pressure
1022.8 hPa
Current Rain
0.01"